createdAt,value
2016-10-07T00:00:34.371Z,26.36
2016-10-07T00:01:15.070Z,26.32
2016-10-07T00:01:55.717Z,26.25
2016-10-07T00:02:36.403Z,26.35
2016-10-07T00:03:17.077Z,26.32
2016-10-07T00:03:57.814Z,26.35
2016-10-07T00:04:38.501Z,26.28
2016-10-07T00:05:19.203Z,26.26
2016-10-07T00:05:59.893Z,26.33
2016-10-07T00:06:40.569Z,26.33
2016-10-07T00:07:21.216Z,26.29
2016-10-07T00:08:01.898Z,26.32
2016-10-07T00:08:42.578Z,26.35
2016-10-07T00:09:23.254Z,26.29
2016-10-07T00:10:03.903Z,26.26
2016-10-07T00:10:44.609Z,26.33
2016-10-07T00:11:25.273Z,26.18
2016-10-07T00:12:05.926Z,26.28
2016-10-07T00:12:46.618Z,26.26
2016-10-07T00:13:27.315Z,26.32
2016-10-07T00:14:07.966Z,26.29
2016-10-07T00:14:48.642Z,26.3
2016-10-07T00:15:29.366Z,26.36
2016-10-07T00:16:10.114Z,26.33
2016-10-07T00:16:50.795Z,26.33
2016-10-07T00:17:31.487Z,26.26
2016-10-07T00:18:12.160Z,26.26
2016-10-07T00:18:52.804Z,26.35
2016-10-07T00:19:33.494Z,26.3
2016-10-07T00:20:14.183Z,26.32
2016-10-07T00:20:54.841Z,26.32
2016-10-07T00:21:35.530Z,26.2
2016-10-07T00:22:16.217Z,26.29
2016-10-07T00:22:56.859Z,26.33
2016-10-07T00:23:37.549Z,26.28
2016-10-07T00:24:18.241Z,26.29
2016-10-07T00:24:58.973Z,26.26
2016-10-07T00:25:39.636Z,26.32
2016-10-07T00:26:20.367Z,26.29
2016-10-07T00:27:01.054Z,26.37
2016-10-07T00:27:41.737Z,26.25
2016-10-07T00:28:22.407Z,26.28
2016-10-07T00:29:03.136Z,26.29
2016-10-07T00:29:43.778Z,26.29
2016-10-07T00:30:24.459Z,26.26
2016-10-07T00:31:05.132Z,26.33
2016-10-07T00:31:45.776Z,26.37
2016-10-07T00:32:26.457Z,26.26
2016-10-07T00:33:07.126Z,26.28
2016-10-07T00:33:47.783Z,26.23
2016-10-07T00:34:28.506Z,26.29
2016-10-07T00:35:09.223Z,26.3
2016-10-07T00:35:49.912Z,26.26
2016-10-07T00:36:30.613Z,26.35
2016-10-07T00:37:11.276Z,26.28
2016-10-07T00:37:51.948Z,26.25
2016-10-07T00:38:32.609Z,26.37
2016-10-07T00:39:13.303Z,26.29
2016-10-07T00:39:54.020Z,26.28
2016-10-07T00:40:34.683Z,26.28
2016-10-07T00:41:15.377Z,26.35
2016-10-07T00:41:56.076Z,26.35
2016-10-07T00:42:36.761Z,26.35
2016-10-07T00:43:17.464Z,26.3
2016-10-07T00:43:58.135Z,26.33
2016-10-07T00:44:38.787Z,26.28
2016-10-07T00:45:19.523Z,26.35
2016-10-07T00:46:00.175Z,26.33
2016-10-07T00:46:40.877Z,26.36
2016-10-07T00:47:21.528Z,26.39
2016-10-07T00:48:02.201Z,26.32
2016-10-07T00:48:42.917Z,26.3
2016-10-07T00:49:23.564Z,26.32
2016-10-07T00:50:04.266Z,26.35
2016-10-07T00:50:44.984Z,26.28
2016-10-07T00:51:25.658Z,26.33
2016-10-07T00:52:06.327Z,26.3
2016-10-07T00:52:47.049Z,26.3
2016-10-07T00:53:27.676Z,26.32
2016-10-07T00:54:08.335Z,26.3
2016-10-07T00:54:49.027Z,26.35
2016-10-07T00:55:29.676Z,26.3
2016-10-07T00:56:10.387Z,26.33
2016-10-07T00:56:51.054Z,26.28
2016-10-07T00:57:31.741Z,26.33
2016-10-07T00:58:12.425Z,26.28
2016-10-07T00:58:53.119Z,26.3
2016-10-07T00:59:33.797Z,26.32
2016-10-07T01:00:14.530Z,26.28
2016-10-07T01:00:55.180Z,26.3
2016-10-07T01:01:35.905Z,26.25
2016-10-07T01:02:16.639Z,26.33
2016-10-07T01:02:57.353Z,26.23
2016-10-07T01:03:38.028Z,26.32
2016-10-07T01:04:18.705Z,26.35
2016-10-07T01:04:59.397Z,26.35
2016-10-07T01:05:40.054Z,26.2
2016-10-07T01:06:20.722Z,26.37
2016-10-07T01:07:01.352Z,26.37
2016-10-07T01:07:42.072Z,26.3
2016-10-07T01:08:22.737Z,26.37
2016-10-07T01:09:03.454Z,26.3
2016-10-07T01:09:44.156Z,26.33
2016-10-07T01:10:24.817Z,26.32
2016-10-07T01:11:05.505Z,26.29
2016-10-07T01:11:46.138Z,26.29
2016-10-07T01:12:26.838Z,26.28
2016-10-07T01:13:07.543Z,26.3
2016-10-07T01:13:48.181Z,26.26
2016-10-07T01:14:28.925Z,26.33
2016-10-07T01:15:09.603Z,26.32
2016-10-07T01:15:50.265Z,26.36
2016-10-07T01:16:31.014Z,26.33
2016-10-07T01:17:11.704Z,26.32
2016-10-07T01:17:52.422Z,26.23
2016-10-07T01:18:33.128Z,26.25
2016-10-07T01:19:13.816Z,26.29
2016-10-07T01:19:54.491Z,26.3
2016-10-07T01:20:35.192Z,26.33
2016-10-07T01:21:15.911Z,26.33
2016-10-07T01:21:56.573Z,26.26
2016-10-07T01:22:37.264Z,26.29
2016-10-07T01:23:17.964Z,26.32
2016-10-07T01:23:58.667Z,26.32
2016-10-07T01:24:39.362Z,26.33
2016-10-07T01:25:20.050Z,26.28
2016-10-07T01:26:00.740Z,26.39
2016-10-07T01:26:41.473Z,26.37
2016-10-07T01:27:22.188Z,26.36
2016-10-07T01:28:02.845Z,26.26
2016-10-07T01:28:43.609Z,26.36
2016-10-07T01:29:24.254Z,26.32
2016-10-07T01:30:04.950Z,26.28
2016-10-07T01:30:45.608Z,26.35
2016-10-07T01:31:26.297Z,26.25
2016-10-07T01:32:06.912Z,26.28
2016-10-07T01:32:47.590Z,26.29
2016-10-07T01:33:28.238Z,26.33
2016-10-07T01:34:08.986Z,26.39
2016-10-07T01:34:49.692Z,26.29
2016-10-07T01:35:30.424Z,26.3
2016-10-07T01:36:11.098Z,26.26
2016-10-07T01:36:51.756Z,26.26
2016-10-07T01:37:32.456Z,26.29
2016-10-07T01:38:13.109Z,26.25
2016-10-07T01:38:53.781Z,26.32
2016-10-07T01:39:34.484Z,26.26
2016-10-07T01:40:15.123Z,26.21
2016-10-07T01:40:55.827Z,26.29
2016-10-07T01:41:36.521Z,26.35
2016-10-07T01:42:17.224Z,26.35
2016-10-07T01:42:57.913Z,26.23
2016-10-07T01:43:38.622Z,26.28
2016-10-07T01:44:19.314Z,26.39
2016-10-07T01:45:00.016Z,26.32
2016-10-07T01:45:40.673Z,26.28
2016-10-07T01:46:21.362Z,26.3
2016-10-07T01:47:02.051Z,26.3
2016-10-07T01:47:42.752Z,26.33
2016-10-07T01:48:23.470Z,26.33
2016-10-07T01:49:04.175Z,26.36
2016-10-07T01:49:44.866Z,26.35
2016-10-07T01:50:25.539Z,26.26
2016-10-07T01:51:06.217Z,26.29
2016-10-07T01:51:46.939Z,26.29
2016-10-07T01:52:27.626Z,26.29
2016-10-07T01:53:08.311Z,26.32
2016-10-07T01:53:49.022Z,26.25
2016-10-07T01:54:29.663Z,26.35
2016-10-07T01:55:10.371Z,26.4
2016-10-07T01:55:51.135Z,26.2
2016-10-07T01:56:31.821Z,26.3
2016-10-07T01:57:12.499Z,26.32
2016-10-07T01:57:53.185Z,26.28
2016-10-07T01:58:33.864Z,26.3
2016-10-07T01:59:14.611Z,26.28
2016-10-07T01:59:55.325Z,26.28
2016-10-07T02:00:35.968Z,26.3
2016-10-07T02:01:16.687Z,26.35
2016-10-07T02:01:57.412Z,26.36
2016-10-07T02:02:38.092Z,26.26
2016-10-07T02:03:18.782Z,26.3
2016-10-07T02:03:59.457Z,26.3
2016-10-07T02:04:40.155Z,26.35
2016-10-07T02:05:20.824Z,26.32
2016-10-07T02:06:01.549Z,26.35
2016-10-07T02:06:42.234Z,26.32
2016-10-07T02:07:22.883Z,26.3
2016-10-07T02:08:03.632Z,26.35
2016-10-07T02:08:44.317Z,26.39
2016-10-07T02:09:24.970Z,26.29
2016-10-07T02:10:05.670Z,26.29
2016-10-07T02:10:46.346Z,26.29
2016-10-07T02:11:27.060Z,26.35
2016-10-07T02:12:07.714Z,26.39
2016-10-07T02:12:48.443Z,26.25
2016-10-07T02:13:29.174Z,26.29
2016-10-07T02:14:09.844Z,26.29
2016-10-07T02:14:50.516Z,26.26
2016-10-07T02:15:31.184Z,26.3
2016-10-07T02:16:11.858Z,26.35
2016-10-07T02:16:52.522Z,26.35
2016-10-07T02:17:33.191Z,26.29
2016-10-07T02:18:13.864Z,26.39
2016-10-07T02:18:54.577Z,26.21
2016-10-07T02:19:35.261Z,26.36
2016-10-07T02:20:15.950Z,26.37
2016-10-07T02:20:56.644Z,26.35
2016-10-07T02:21:37.303Z,26.33
2016-10-07T02:22:17.977Z,26.33
2016-10-07T02:22:58.682Z,26.35
2016-10-07T02:23:39.323Z,26.25
2016-10-07T02:24:19.966Z,26.33
2016-10-07T02:25:00.663Z,26.25
2016-10-07T02:25:41.340Z,26.37
2016-10-07T02:26:22.095Z,26.32
2016-10-07T02:27:02.808Z,26.29
2016-10-07T02:27:43.497Z,26.29
2016-10-07T02:28:24.176Z,26.3
2016-10-07T02:29:04.855Z,26.25
2016-10-07T02:29:45.518Z,26.33
2016-10-07T02:30:26.190Z,26.28
2016-10-07T02:31:06.875Z,26.3
2016-10-07T02:31:47.534Z,26.23
2016-10-07T02:32:28.167Z,26.36
2016-10-07T02:33:08.863Z,26.29
2016-10-07T02:33:49.575Z,26.35
2016-10-07T02:34:30.294Z,26.35
2016-10-07T02:35:10.994Z,26.35
2016-10-07T02:35:51.679Z,26.28
2016-10-07T02:36:32.421Z,26.3
2016-10-07T02:37:13.131Z,26.29
2016-10-07T02:37:53.792Z,26.29
2016-10-07T02:38:34.438Z,26.32
2016-10-07T02:39:15.115Z,26.33
2016-10-07T02:39:55.787Z,26.28
2016-10-07T02:40:36.505Z,26.25
2016-10-07T02:41:17.215Z,26.29
2016-10-07T02:41:57.869Z,26.32
2016-10-07T02:42:38.515Z,26.29
2016-10-07T02:43:19.179Z,26.29
2016-10-07T02:43:59.854Z,26.3
2016-10-07T02:44:40.509Z,26.3
2016-10-07T02:45:21.152Z,26.25
2016-10-07T02:46:01.849Z,26.29
2016-10-07T02:46:42.490Z,26.33
2016-10-07T02:47:23.210Z,26.28
2016-10-07T02:48:03.907Z,26.3
2016-10-07T02:48:44.577Z,26.25
2016-10-07T02:49:25.301Z,26.2
2016-10-07T02:50:06.015Z,26.26
2016-10-07T02:50:46.695Z,26.2
2016-10-07T02:51:27.387Z,26.26
2016-10-07T02:52:08.048Z,26.3
2016-10-07T02:52:48.735Z,26.28
2016-10-07T02:53:29.371Z,26.35
2016-10-07T02:54:10.010Z,26.26
2016-10-07T02:54:50.704Z,26.29
2016-10-07T02:55:31.363Z,26.35
2016-10-07T02:56:12.066Z,26.37
2016-10-07T02:56:52.755Z,26.29
2016-10-07T02:57:33.466Z,26.3
2016-10-07T02:58:14.128Z,26.32
2016-10-07T02:58:54.842Z,26.26
2016-10-07T02:59:35.489Z,26.26
2016-10-07T03:00:16.194Z,26.25
2016-10-07T03:00:56.842Z,26.32
2016-10-07T03:01:37.535Z,26.33
2016-10-07T03:02:18.234Z,26.32
2016-10-07T03:02:58.948Z,26.3
2016-10-07T03:03:39.621Z,26.37
2016-10-07T03:04:20.304Z,26.26
2016-10-07T03:05:01.017Z,26.32
2016-10-07T03:05:41.711Z,26.29
2016-10-07T03:06:22.335Z,26.33
2016-10-07T03:07:03.043Z,26.29
2016-10-07T03:07:43.726Z,26.26
2016-10-07T03:08:24.437Z,26.33
2016-10-07T03:09:05.128Z,26.3
2016-10-07T03:09:45.751Z,26.26
2016-10-07T03:10:26.408Z,26.35
2016-10-07T03:11:07.067Z,26.32
2016-10-07T03:11:47.719Z,26.25
2016-10-07T03:12:28.404Z,26.33
2016-10-07T03:13:09.095Z,26.29
2016-10-07T03:13:49.745Z,26.37
2016-10-07T03:14:30.449Z,26.28
2016-10-07T03:15:11.190Z,26.35
2016-10-07T03:15:51.883Z,26.32
2016-10-07T03:16:32.580Z,26.32
2016-10-07T03:17:13.294Z,26.36
2016-10-07T03:17:53.994Z,26.3
2016-10-07T03:18:34.617Z,26.32
2016-10-07T03:19:15.360Z,26.32
2016-10-07T03:19:56.006Z,26.29
2016-10-07T03:20:36.705Z,26.32
2016-10-07T03:21:17.364Z,26.3
2016-10-07T03:21:58.076Z,26.3
2016-10-07T03:22:38.733Z,26.29
2016-10-07T03:23:19.417Z,26.32
2016-10-07T03:24:00.138Z,26.32
2016-10-07T03:24:40.806Z,26.25
2016-10-07T03:25:21.487Z,26.3
2016-10-07T03:26:02.158Z,26.2
2016-10-07T03:26:42.822Z,26.29
2016-10-07T03:27:23.520Z,26.28
2016-10-07T03:28:04.238Z,26.28
2016-10-07T03:28:44.902Z,26.29
2016-10-07T03:29:25.595Z,26.32
2016-10-07T03:30:06.302Z,26.32
2016-10-07T03:30:46.982Z,26.3
2016-10-07T03:31:27.683Z,26.29
2016-10-07T03:32:08.339Z,26.29
2016-10-07T03:32:48.985Z,26.26
2016-10-07T03:33:30.233Z,26.32
2016-10-07T03:34:10.898Z,26.3
2016-10-07T03:34:51.603Z,26.35
2016-10-07T03:35:32.309Z,26.32
2016-10-07T03:36:13.036Z,26.33
2016-10-07T03:36:53.683Z,26.3
2016-10-07T03:37:34.367Z,26.32
2016-10-07T03:38:15.073Z,26.29
2016-10-07T03:38:55.725Z,26.3
2016-10-07T03:39:36.417Z,26.26
2016-10-07T03:40:17.111Z,26.33
2016-10-07T03:40:57.796Z,26.32
2016-10-07T03:41:38.499Z,26.26
2016-10-07T03:42:19.228Z,26.3
2016-10-07T03:42:59.864Z,26.32
2016-10-07T03:43:40.551Z,26.35
2016-10-07T03:44:21.250Z,26.32
2016-10-07T03:45:01.945Z,26.3
2016-10-07T03:45:42.644Z,26.39
2016-10-07T03:46:23.336Z,26.32
2016-10-07T03:47:04.002Z,26.33
2016-10-07T03:47:44.688Z,26.33
2016-10-07T03:48:25.374Z,26.26
2016-10-07T03:49:06.087Z,26.43
2016-10-07T03:49:46.724Z,26.33
2016-10-07T03:50:27.407Z,26.29
2016-10-07T03:51:08.070Z,26.32
2016-10-07T03:51:48.739Z,26.29
2016-10-07T03:52:29.435Z,26.32
2016-10-07T03:53:10.123Z,26.25
2016-10-07T03:53:50.744Z,26.26
2016-10-07T03:54:31.452Z,26.37
2016-10-07T03:55:12.159Z,26.3
2016-10-07T03:55:52.860Z,26.29
2016-10-07T03:56:33.507Z,26.29
2016-10-07T03:57:14.205Z,26.3
2016-10-07T03:57:54.929Z,26.28
2016-10-07T03:58:35.623Z,26.28
2016-10-07T03:59:16.314Z,26.32
2016-10-07T03:59:57.027Z,26.26
2016-10-07T04:00:37.694Z,26.35
2016-10-07T04:01:18.402Z,26.21
2016-10-07T04:01:59.092Z,26.3
2016-10-07T04:02:39.734Z,26.33
2016-10-07T04:03:20.393Z,26.36
2016-10-07T04:04:01.065Z,26.29
2016-10-07T04:04:41.741Z,26.28
2016-10-07T04:05:22.436Z,26.28
2016-10-07T04:06:03.070Z,26.28
2016-10-07T04:06:43.756Z,26.3
2016-10-07T04:07:24.451Z,26.3
2016-10-07T04:08:05.176Z,26.26
2016-10-07T04:08:45.848Z,26.29
2016-10-07T04:09:26.507Z,26.28
2016-10-07T04:10:07.192Z,26.35
2016-10-07T04:10:47.847Z,26.29
2016-10-07T04:11:28.513Z,26.36
2016-10-07T04:12:09.163Z,26.32
2016-10-07T04:12:49.857Z,26.26
2016-10-07T04:13:30.510Z,26.28
2016-10-07T04:14:11.219Z,26.36
2016-10-07T04:14:51.901Z,26.29
2016-10-07T04:15:32.595Z,26.23
2016-10-07T04:16:13.244Z,26.25
2016-10-07T04:16:53.922Z,26.35
2016-10-07T04:17:34.585Z,26.26
2016-10-07T04:18:15.256Z,26.26
2016-10-07T04:18:55.936Z,26.36
2016-10-07T04:19:36.634Z,26.33
2016-10-07T04:20:17.325Z,26.35
2016-10-07T04:20:58.046Z,26.32
2016-10-07T04:21:38.740Z,26.32
2016-10-07T04:22:19.451Z,26.32
2016-10-07T04:23:00.121Z,26.3
2016-10-07T04:23:40.820Z,26.28
2016-10-07T04:24:21.542Z,26.26
2016-10-07T04:25:02.230Z,26.32
2016-10-07T04:25:42.928Z,26.33
2016-10-07T04:26:23.625Z,26.3
2016-10-07T04:27:04.335Z,26.37
2016-10-07T04:27:45.041Z,26.33
2016-10-07T04:28:25.690Z,26.33
2016-10-07T04:29:06.375Z,26.25
2016-10-07T04:29:47.067Z,26.32
2016-10-07T04:30:27.781Z,26.32
2016-10-07T04:31:08.449Z,26.29
2016-10-07T04:31:49.157Z,26.32
2016-10-07T04:32:29.833Z,26.29
2016-10-07T04:33:10.490Z,26.32
2016-10-07T04:33:51.179Z,26.29
2016-10-07T04:34:31.836Z,26.3
2016-10-07T04:35:12.538Z,26.26
2016-10-07T04:35:53.248Z,26.29
2016-10-07T04:36:33.964Z,26.33
2016-10-07T04:37:14.665Z,26.25
2016-10-07T04:37:55.341Z,26.35
2016-10-07T04:38:36.067Z,26.3
2016-10-07T04:39:16.720Z,26.3
2016-10-07T04:39:57.402Z,26.28
2016-10-07T04:40:38.073Z,26.35
2016-10-07T04:41:18.757Z,26.29
2016-10-07T04:41:59.432Z,26.3
2016-10-07T04:42:40.128Z,26.28
2016-10-07T04:43:20.776Z,26.29
2016-10-07T04:44:01.445Z,26.33
2016-10-07T04:44:42.072Z,26.35
2016-10-07T04:45:22.752Z,26.33
2016-10-07T04:46:03.441Z,26.29
2016-10-07T04:46:44.109Z,26.29
2016-10-07T04:47:24.789Z,26.32
2016-10-07T04:48:05.465Z,26.32
2016-10-07T04:48:46.136Z,26.26
2016-10-07T04:49:26.839Z,26.32
2016-10-07T04:50:07.498Z,26.29
2016-10-07T04:50:48.176Z,26.29
2016-10-07T04:51:28.859Z,26.29
2016-10-07T04:52:09.518Z,26.3
2016-10-07T04:52:50.244Z,26.29
2016-10-07T04:53:30.936Z,26.3
2016-10-07T04:54:11.589Z,26.3
2016-10-07T04:54:52.238Z,26.33
2016-10-07T04:55:32.912Z,26.3
2016-10-07T04:56:13.657Z,26.25
2016-10-07T04:56:54.345Z,26.29
2016-10-07T04:57:35.039Z,26.29
2016-10-07T04:58:15.690Z,26.37
2016-10-07T04:58:56.387Z,26.32
2016-10-07T04:59:37.088Z,26.35
2016-10-07T05:00:17.781Z,26.32
2016-10-07T05:00:58.475Z,26.28
2016-10-07T05:01:39.142Z,26.3
2016-10-07T05:02:19.786Z,26.28
2016-10-07T05:03:00.418Z,26.3
2016-10-07T05:03:41.142Z,26.32
2016-10-07T05:04:21.881Z,26.29
2016-10-07T05:05:02.605Z,26.33
2016-10-07T05:05:43.299Z,26.33
2016-10-07T05:06:24.009Z,26.28
2016-10-07T05:07:04.700Z,26.3
2016-10-07T05:07:45.419Z,26.32
2016-10-07T05:08:26.090Z,26.32
2016-10-07T05:09:06.762Z,26.32
2016-10-07T05:09:47.405Z,26.26
2016-10-07T05:10:28.115Z,26.29
2016-10-07T05:11:08.766Z,26.29
2016-10-07T05:11:49.443Z,26.35
2016-10-07T05:12:30.135Z,26.39
2016-10-07T05:13:10.781Z,26.37
2016-10-07T05:13:51.526Z,26.32
2016-10-07T05:14:32.188Z,26.32
2016-10-07T05:15:12.875Z,26.28
2016-10-07T05:15:53.543Z,26.37
2016-10-07T05:16:34.242Z,26.35
2016-10-07T05:17:14.895Z,26.32
2016-10-07T05:17:55.559Z,26.36
2016-10-07T05:18:36.219Z,26.3
2016-10-07T05:19:16.945Z,26.35
2016-10-07T05:19:57.639Z,26.36
2016-10-07T05:20:38.393Z,26.33
2016-10-07T05:21:19.067Z,26.36
2016-10-07T05:21:59.716Z,26.35
2016-10-07T05:22:40.379Z,26.33
2016-10-07T05:23:21.074Z,26.35
2016-10-07T05:24:01.771Z,26.36
2016-10-07T05:24:42.442Z,26.35
2016-10-07T05:25:23.131Z,26.33
2016-10-07T05:26:03.835Z,26.4
2016-10-07T05:26:44.485Z,26.28
2016-10-07T05:27:25.156Z,26.35
2016-10-07T05:28:05.863Z,26.32
2016-10-07T05:28:46.557Z,26.33
2016-10-07T05:29:27.197Z,26.43
2016-10-07T05:30:07.884Z,26.37
2016-10-07T05:30:48.632Z,26.36
2016-10-07T05:31:29.369Z,26.36
2016-10-07T05:32:10.018Z,26.4
2016-10-07T05:32:50.725Z,26.39
2016-10-07T05:33:31.377Z,26.32
2016-10-07T05:34:12.064Z,26.43
2016-10-07T05:34:52.782Z,26.35
2016-10-07T05:35:33.429Z,26.39
2016-10-07T05:36:14.124Z,26.4
2016-10-07T05:36:54.812Z,26.33
2016-10-07T05:37:35.555Z,26.36
2016-10-07T05:38:16.181Z,26.43
2016-10-07T05:38:56.893Z,26.37
2016-10-07T05:39:37.558Z,26.32
2016-10-07T05:40:18.248Z,26.4
2016-10-07T05:40:58.969Z,26.36
2016-10-07T05:41:39.731Z,26.29
2016-10-07T05:42:20.359Z,26.4
2016-10-07T05:43:01.065Z,26.33
2016-10-07T05:43:41.794Z,26.32
2016-10-07T05:44:22.478Z,26.44
2016-10-07T05:45:03.188Z,26.4
2016-10-07T05:45:43.799Z,26.35
2016-10-07T05:46:24.498Z,26.43
2016-10-07T05:47:05.153Z,26.39
2016-10-07T05:47:45.823Z,26.43
2016-10-07T05:48:26.469Z,26.39
2016-10-07T05:49:07.157Z,26.33
2016-10-07T05:49:47.840Z,26.39
2016-10-07T05:50:28.493Z,26.35
2016-10-07T05:51:09.189Z,26.37
2016-10-07T05:51:49.849Z,26.44
2016-10-07T05:52:30.509Z,26.44
2016-10-07T05:53:11.169Z,26.44
2016-10-07T05:53:51.897Z,26.35
2016-10-07T05:54:32.571Z,26.45
2016-10-07T05:55:13.242Z,26.36
2016-10-07T05:55:53.921Z,26.37
2016-10-07T05:56:34.600Z,26.43
2016-10-07T05:57:15.304Z,26.45
2016-10-07T05:57:56.024Z,26.37
2016-10-07T05:58:36.774Z,26.36
2016-10-07T05:59:17.444Z,26.44
2016-10-07T05:59:58.127Z,26.35
2016-10-07T06:00:38.845Z,26.35
2016-10-07T06:01:19.490Z,26.33
2016-10-07T06:02:00.185Z,26.37
2016-10-07T06:02:40.840Z,26.4
2016-10-07T06:03:21.506Z,26.37
2016-10-07T06:04:02.244Z,26.36
2016-10-07T06:04:42.874Z,26.4
2016-10-07T06:05:23.634Z,26.37
2016-10-07T06:06:04.335Z,26.43
2016-10-07T06:06:45.015Z,26.4
2016-10-07T06:07:25.702Z,26.45
2016-10-07T06:08:06.437Z,26.37
2016-10-07T06:08:47.149Z,26.4
2016-10-07T06:09:27.877Z,26.43
2016-10-07T06:10:08.589Z,26.44
2016-10-07T06:10:49.265Z,26.32
2016-10-07T06:11:29.932Z,26.33
2016-10-07T06:12:10.626Z,26.44
2016-10-07T06:12:51.349Z,26.39
2016-10-07T06:13:32.069Z,26.4
2016-10-07T06:14:12.732Z,26.4
2016-10-07T06:14:53.418Z,26.44
2016-10-07T06:15:34.114Z,26.37
2016-10-07T06:16:14.784Z,26.33
2016-10-07T06:16:55.441Z,26.36
2016-10-07T06:17:36.140Z,26.45
2016-10-07T06:18:16.856Z,26.44
2016-10-07T06:18:57.523Z,26.39
2016-10-07T06:19:38.234Z,26.39
2016-10-07T06:20:18.960Z,26.36
2016-10-07T06:20:59.652Z,26.4
2016-10-07T06:21:40.291Z,26.45
2016-10-07T06:22:20.947Z,26.26
2016-10-07T06:23:01.648Z,26.09
2016-10-07T06:23:42.395Z,26.07
2016-10-07T06:24:23.122Z,25.87
2016-10-07T06:25:03.801Z,25.65
2016-10-07T06:25:44.473Z,25.38
2016-10-07T06:26:25.150Z,25.33
2016-10-07T06:27:05.855Z,25.2
2016-10-07T06:27:46.580Z,25.03
2016-10-07T06:28:27.290Z,24.93
2016-10-07T06:29:07.972Z,24.73
2016-10-07T06:29:48.712Z,24.62
2016-10-07T06:30:29.395Z,24.5
2016-10-07T06:31:10.120Z,24.5
2016-10-07T06:31:50.802Z,24.52
2016-10-07T06:32:31.532Z,24.32
2016-10-07T06:33:12.287Z,24.25
2016-10-07T06:33:52.941Z,24.2
2016-10-07T06:34:33.740Z,23.97
2016-10-07T06:35:14.433Z,23.83
2016-10-07T06:35:55.133Z,23.78
2016-10-07T06:36:35.867Z,23.78
2016-10-07T06:37:16.569Z,23.84
2016-10-07T06:37:57.257Z,24.02
2016-10-07T06:38:37.981Z,23.93
2016-10-07T06:39:18.673Z,23.66
2016-10-07T06:39:59.354Z,23.36
2016-10-07T06:40:40.067Z,23.38
2016-10-07T06:41:20.703Z,23.39
2016-10-07T06:42:01.482Z,23.42
2016-10-07T06:42:42.198Z,23.36
2016-10-07T06:43:22.811Z,23.55
2016-10-07T06:44:03.546Z,23.61
2016-10-07T06:44:44.217Z,23.51
2016-10-07T06:45:24.931Z,23.57
2016-10-07T06:46:05.652Z,23.54
2016-10-07T06:46:46.366Z,23.54
2016-10-07T06:47:27.146Z,23.38
2016-10-07T06:48:07.861Z,23.35
2016-10-07T06:48:48.582Z,23.5
2016-10-07T06:49:29.315Z,23.4
2016-10-07T06:50:10.006Z,23.38
2016-10-07T06:50:50.690Z,23.4
2016-10-07T06:51:31.378Z,23.5
2016-10-07T06:52:12.134Z,23.54
2016-10-07T06:52:52.872Z,23.36
2016-10-07T06:53:33.536Z,23.31
2016-10-07T06:54:14.181Z,23.28
2016-10-07T06:54:54.902Z,23.35
2016-10-07T06:55:35.646Z,23.35
2016-10-07T06:56:16.390Z,23.39
2016-10-07T06:56:57.105Z,23.27
2016-10-07T06:57:37.823Z,23.19
2016-10-07T06:58:18.540Z,23.09
2016-10-07T06:58:59.243Z,23.07
2016-10-07T06:59:39.964Z,22.98
2016-10-07T07:00:20.664Z,22.97
2016-10-07T07:01:01.306Z,23.17
2016-10-07T07:01:41.982Z,23.22
2016-10-07T07:02:22.712Z,23.32
2016-10-07T07:03:03.404Z,23.15
2016-10-07T07:03:44.100Z,23.17
2016-10-07T07:04:24.793Z,23.15
2016-10-07T07:05:05.508Z,22.91
2016-10-07T07:05:46.182Z,23.01
2016-10-07T07:06:26.858Z,22.83
2016-10-07T07:07:07.579Z,23.01
2016-10-07T07:07:48.331Z,23.04
2016-10-07T07:08:28.981Z,22.8
2016-10-07T07:09:09.625Z,22.77
2016-10-07T07:09:50.344Z,22.9
2016-10-07T07:10:31.046Z,23.01
2016-10-07T07:11:11.808Z,22.98
2016-10-07T07:11:52.468Z,23.09
2016-10-07T07:12:33.199Z,23.07
2016-10-07T07:13:14.015Z,23.09
2016-10-07T07:13:54.886Z,23.17
2016-10-07T07:14:35.606Z,23.2
2016-10-07T07:15:16.273Z,23.13
2016-10-07T07:15:56.983Z,23.2
2016-10-07T07:16:37.670Z,23.19
2016-10-07T07:17:18.480Z,23.43
2016-10-07T07:17:59.162Z,23.46
2016-10-07T07:18:39.872Z,23.23
2016-10-07T07:19:20.548Z,23.23
2016-10-07T07:20:01.222Z,23.2
2016-10-07T07:20:41.966Z,23.1
2016-10-07T07:21:22.700Z,23.1
2016-10-07T07:22:03.351Z,23.13
2016-10-07T07:22:44.037Z,23.09
2016-10-07T07:23:24.736Z,22.94
2016-10-07T07:24:05.475Z,22.83
2016-10-07T07:24:46.126Z,22.9
2016-10-07T07:25:26.813Z,22.86
2016-10-07T07:26:07.462Z,22.77
2016-10-07T07:26:48.185Z,22.85
2016-10-07T07:27:28.867Z,22.8
2016-10-07T07:28:09.577Z,22.7
2016-10-07T07:28:50.276Z,22.61
2016-10-07T07:29:31.040Z,22.68
2016-10-07T07:30:11.744Z,22.67
2016-10-07T07:30:52.491Z,22.8
2016-10-07T07:31:33.175Z,22.62
2016-10-07T07:32:13.860Z,22.57
2016-10-07T07:32:54.545Z,22.61
2016-10-07T07:33:35.191Z,22.49
2016-10-07T07:34:15.930Z,22.45
2016-10-07T07:34:56.641Z,22.6
2016-10-07T07:35:37.376Z,22.58
2016-10-07T07:36:18.098Z,22.58
2016-10-07T07:36:58.787Z,22.57
2016-10-07T07:37:39.459Z,22.57
2016-10-07T07:38:20.163Z,22.61
2016-10-07T07:39:00.866Z,22.54
2016-10-07T07:39:41.596Z,22.47
2016-10-07T07:40:22.299Z,22.42
2016-10-07T07:41:03.011Z,22.45
2016-10-07T07:41:43.669Z,22.35
2016-10-07T07:42:24.363Z,22.33
2016-10-07T07:43:05.109Z,22.47
2016-10-07T07:43:45.804Z,22.6
2016-10-07T07:44:27.073Z,22.57
2016-10-07T07:45:07.768Z,22.55
2016-10-07T07:45:48.474Z,22.47
2016-10-07T07:46:29.184Z,22.4
2016-10-07T07:47:09.874Z,22.4
2016-10-07T07:47:50.638Z,22.46
2016-10-07T07:48:31.360Z,22.49
2016-10-07T07:49:12.035Z,22.49
2016-10-07T07:49:52.707Z,22.57
2016-10-07T07:50:33.437Z,22.57
2016-10-07T07:51:14.203Z,22.4
2016-10-07T07:51:54.911Z,22.43
2016-10-07T07:52:35.601Z,22.3
2016-10-07T07:53:16.267Z,22.35
2016-10-07T07:53:56.954Z,22.3
2016-10-07T07:54:37.661Z,22.37
2016-10-07T07:55:18.364Z,22.27
2016-10-07T07:55:59.086Z,22.28
2016-10-07T07:56:39.786Z,22.21
2016-10-07T07:57:20.461Z,22.39
2016-10-07T07:58:01.182Z,22.28
2016-10-07T07:58:41.874Z,22.35
2016-10-07T07:59:22.547Z,22.22
2016-10-07T08:00:03.288Z,22.33
2016-10-07T08:00:44.052Z,22.24
2016-10-07T08:01:24.705Z,22.35
2016-10-07T08:02:05.407Z,22.37
2016-10-07T08:02:46.074Z,22.28
2016-10-07T08:03:26.753Z,22.42
2016-10-07T08:04:07.500Z,22.28
2016-10-07T08:04:48.196Z,22.21
2016-10-07T08:05:28.900Z,22.37
2016-10-07T08:06:09.614Z,22.28
2016-10-07T08:06:50.321Z,22.25
2016-10-07T08:07:30.982Z,22.28
2016-10-07T08:08:11.675Z,22.27
2016-10-07T08:08:52.391Z,22.36
2016-10-07T08:09:33.082Z,22.25
2016-10-07T08:10:13.764Z,22.36
2016-10-07T08:10:54.530Z,22.45
2016-10-07T08:11:35.209Z,22.27
2016-10-07T08:12:15.872Z,22.24
2016-10-07T08:12:56.574Z,22.14
2016-10-07T08:13:37.349Z,22.24
2016-10-07T08:14:18.081Z,22.31
2016-10-07T08:14:58.766Z,22.37
2016-10-07T08:15:39.554Z,22.25
2016-10-07T08:16:20.309Z,22.31
2016-10-07T08:17:01.197Z,22.2
2016-10-07T08:17:41.844Z,22.36
2016-10-07T08:18:22.613Z,22.36
2016-10-07T08:19:03.350Z,22.33
2016-10-07T08:19:44.056Z,22.36
2016-10-07T08:20:24.829Z,22.33
2016-10-07T08:21:05.540Z,22.37
2016-10-07T08:21:46.297Z,22.4
2016-10-07T08:22:27.034Z,22.42
2016-10-07T08:23:07.819Z,22.43
2016-10-07T08:23:48.540Z,22.39
2016-10-07T08:24:29.256Z,22.46
2016-10-07T08:25:09.985Z,22.47
2016-10-07T08:25:50.693Z,22.3
2016-10-07T08:26:31.333Z,22.45
2016-10-07T08:27:12.046Z,22.43
2016-10-07T08:27:52.727Z,22.45
2016-10-07T08:28:33.498Z,22.35
2016-10-07T08:29:14.161Z,22.35
2016-10-07T08:29:54.852Z,22.25
2016-10-07T08:30:35.538Z,22.37
2016-10-07T08:31:16.266Z,22.39
2016-10-07T08:31:56.973Z,22.4
2016-10-07T08:32:37.655Z,22.33
2016-10-07T08:33:18.375Z,22.39
2016-10-07T08:33:59.113Z,22.39
2016-10-07T08:34:39.801Z,22.52
2016-10-07T08:35:20.470Z,22.49
2016-10-07T08:36:01.189Z,22.47
2016-10-07T08:36:41.877Z,22.58
2016-10-07T08:37:22.569Z,22.37
2016-10-07T08:38:03.279Z,22.35
2016-10-07T08:38:43.900Z,22.42
2016-10-07T08:39:24.629Z,22.42
2016-10-07T08:40:05.378Z,22.4
2016-10-07T08:40:46.045Z,22.31
2016-10-07T08:41:26.782Z,22.3
2016-10-07T08:42:07.505Z,22.2
2016-10-07T08:42:48.187Z,22.14
2016-10-07T08:43:28.889Z,22.14
2016-10-07T08:44:09.627Z,22.17
2016-10-07T08:44:50.320Z,22.18
2016-10-07T08:45:31.015Z,22.17
2016-10-07T08:46:11.719Z,22.17
2016-10-07T08:46:52.424Z,22.18